sensor_id;sensor_type;location;lat;lon;timestamp;P1;durP1;ratioP1;P2;durP2;ratioP2
11121;SDS011;5615;49.304;10.576;2022-09-20T00:00:26;7.83;;;4.70;;
11121;SDS011;5615;49.304;10.576;2022-09-20T00:02:54;9.97;;;5.07;;
11121;SDS011;5615;49.304;10.576;2022-09-20T00:05:21;10.77;;;5.00;;
11121;SDS011;5615;49.304;10.576;2022-09-20T00:07:48;10.27;;;4.80;;
11121;SDS011;5615;49.304;10.576;2022-09-20T00:10:14;9.37;;;4.90;;
11121;SDS011;5615;49.304;10.576;2022-09-20T00:12:41;6.60;;;4.77;;
11121;SDS011;5615;49.304;10.576;2022-09-20T00:15:08;8.43;;;4.83;;
11121;SDS011;5615;49.304;10.576;2022-09-20T00:17:36;9.40;;;4.90;;
11121;SDS011;5615;49.304;10.576;2022-09-20T00:20:03;10.33;;;5.07;;
11121;SDS011;5615;49.304;10.576;2022-09-20T00:22:30;7.53;;;5.40;;
11121;SDS011;5615;49.304;10.576;2022-09-20T00:24:56;7.37;;;4.70;;
11121;SDS011;5615;49.304;10.576;2022-09-20T00:27:23;8.80;;;5.07;;
11121;SDS011;5615;49.304;10.576;2022-09-20T00:29:50;13.20;;;5.47;;
11121;SDS011;5615;49.304;10.576;2022-09-20T00:32:17;7.00;;;4.83;;
11121;SDS011;5615;49.304;10.576;2022-09-20T00:34:45;9.33;;;4.57;;
11121;SDS011;5615;49.304;10.576;2022-09-20T00:37:29;12.20;;;5.17;;
11121;SDS011;5615;49.304;10.576;2022-09-20T00:39:56;7.60;;;4.93;;
11121;SDS011;5615;49.304;10.576;2022-09-20T00:42:25;9.40;;;5.20;;
11121;SDS011;5615;49.304;10.576;2022-09-20T00:44:55;8.57;;;4.70;;
11121;SDS011;5615;49.304;10.576;2022-09-20T00:47:33;7.87;;;5.13;;
11121;SDS011;5615;49.304;10.576;2022-09-20T00:50:13;11.50;;;5.27;;
11121;SDS011;5615;49.304;10.576;2022-09-20T00:52:59;11.73;;;6.10;;
11121;SDS011;5615;49.304;10.576;2022-09-20T00:55:29;9.47;;;5.60;;
11121;SDS011;5615;49.304;10.576;2022-09-20T00:57:57;11.07;;;5.70;;
11121;SDS011;5615;49.304;10.576;2022-09-20T01:00:25;8.37;;;5.43;;
11121;SDS011;5615;49.304;10.576;2022-09-20T01:02:52;11.67;;;5.33;;
11121;SDS011;5615;49.304;10.576;2022-09-20T01:05:23;12.07;;;5.90;;
11121;SDS011;5615;49.304;10.576;2022-09-20T01:07:51;10.80;;;5.93;;
11121;SDS011;5615;49.304;10.576;2022-09-20T01:10:18;12.23;;;5.97;;
11121;SDS011;5615;49.304;10.576;2022-09-20T01:12:44;10.13;;;6.13;;
11121;SDS011;5615;49.304;10.576;2022-09-20T01:15:13;9.80;;;5.97;;
11121;SDS011;5615;49.304;10.576;2022-09-20T01:17:42;12.13;;;5.97;;
11121;SDS011;5615;49.304;10.576;2022-09-20T01:20:13;10.17;;;6.00;;
11121;SDS011;5615;49.304;10.576;2022-09-20T01:22:49;11.63;;;6.67;;
11121;SDS011;5615;49.304;10.576;2022-09-20T01:25:29;13.23;;;6.47;;
11121;SDS011;5615;49.304;10.576;2022-09-20T01:28:22;13.77;;;6.13;;
11121;SDS011;5615;49.304;10.576;2022-09-20T01:30:51;12.10;;;6.47;;
11121;SDS011;5615;49.304;10.576;2022-09-20T01:33:27;10.73;;;6.27;;
11121;SDS011;5615;49.304;10.576;2022-09-20T01:35:57;7.70;;;6.43;;
11121;SDS011;5615;49.304;10.576;2022-09-20T01:38:29;14.73;;;7.10;;
11121;SDS011;5615;49.304;10.576;2022-09-20T01:41:02;12.50;;;6.47;;
11121;SDS011;5615;49.304;10.576;2022-09-20T01:43:36;10.93;;;6.40;;
11121;SDS011;5615;49.304;10.576;2022-09-20T01:46:14;8.10;;;6.53;;
11121;SDS011;5615;49.304;10.576;2022-09-20T01:48:49;8.83;;;6.10;;
11121;SDS011;5615;49.304;10.576;2022-09-20T01:51:30;12.20;;;6.20;;
11121;SDS011;5615;49.304;10.576;2022-09-20T01:54:29;9.10;;;6.73;;
11121;SDS011;5615;49.304;10.576;2022-09-20T01:57:44;9.97;;;6.23;;
11121;SDS011;5615;49.304;10.576;2022-09-20T02:00:37;10.73;;;6.80;;
11121;SDS011;5615;49.304;10.576;2022-09-20T02:03:40;8.77;;;6.07;;
11121;SDS011;5615;49.304;10.576;2022-09-20T02:06:32;11.63;;;6.20;;
11121;SDS011;5615;49.304;10.576;2022-09-20T02:12:23;9.67;;;5.67;;
11121;SDS011;5615;49.304;10.576;2022-09-20T02:15:05;9.77;;;5.60;;
11121;SDS011;5615;49.304;10.576;2022-09-20T02:17:42;11.03;;;5.77;;
11121;SDS011;5615;49.304;10.576;2022-09-20T02:20:22;12.93;;;6.10;;
11121;SDS011;5615;49.304;10.576;2022-09-20T02:23:11;10.03;;;5.37;;
11121;SDS011;5615;49.304;10.576;2022-09-20T02:25:56;12.07;;;6.13;;
11121;SDS011;5615;49.304;10.576;2022-09-20T02:28:34;11.63;;;6.00;;
11121;SDS011;5615;49.304;10.576;2022-09-20T02:31:13;11.33;;;6.77;;
11121;SDS011;5615;49.304;10.576;2022-09-20T02:33:54;10.27;;;5.90;;
11121;SDS011;5615;49.304;10.576;2022-09-20T02:36:35;13.30;;;6.10;;
11121;SDS011;5615;49.304;10.576;2022-09-20T02:39:07;10.53;;;6.47;;
11121;SDS011;5615;49.304;10.576;2022-09-20T02:41:50;10.27;;;5.67;;
11121;SDS011;5615;49.304;10.576;2022-09-20T02:44:25;9.43;;;6.40;;
11121;SDS011;5615;49.304;10.576;2022-09-20T02:47:04;9.73;;;5.57;;
11121;SDS011;5615;49.304;10.576;2022-09-20T02:49:43;12.50;;;6.00;;
11121;SDS011;5615;49.304;10.576;2022-09-20T02:52:25;12.33;;;6.07;;
11121;SDS011;5615;49.304;10.576;2022-09-20T02:54:56;9.53;;;5.40;;
11121;SDS011;5615;49.304;10.576;2022-09-20T02:57:30;9.80;;;5.43;;
11121;SDS011;5615;49.304;10.576;2022-09-20T03:00:03;8.00;;;5.43;;
11121;SDS011;5615;49.304;10.576;2022-09-20T03:02:35;10.50;;;6.20;;
11121;SDS011;5615;49.304;10.576;2022-09-20T03:05:17;11.20;;;6.13;;
11121;SDS011;5615;49.304;10.576;2022-09-20T03:07:53;7.47;;;6.00;;
11121;SDS011;5615;49.304;10.576;2022-09-20T03:10:31;11.83;;;6.10;;
11121;SDS011;5615;49.304;10.576;2022-09-20T03:13:09;8.17;;;5.70;;
11121;SDS011;5615;49.304;10.576;2022-09-20T03:15:45;11.63;;;6.00;;
11121;SDS011;5615;49.304;10.576;2022-09-20T03:18:26;10.70;;;6.60;;
11121;SDS011;5615;49.304;10.576;2022-09-20T03:21:01;10.77;;;5.97;;
11121;SDS011;5615;49.304;10.576;2022-09-20T03:23:43;12.43;;;6.80;;
11121;SDS011;5615;49.304;10.576;2022-09-20T03:26:22;9.37;;;6.60;;
11121;SDS011;5615;49.304;10.576;2022-09-20T03:29:01;10.67;;;6.33;;
11121;SDS011;5615;49.304;10.576;2022-09-20T03:31:33;13.43;;;6.63;;
11121;SDS011;5615;49.304;10.576;2022-09-20T03:34:17;11.53;;;6.80;;
11121;SDS011;5615;49.304;10.576;2022-09-20T03:36:58;12.83;;;7.47;;
11121;SDS011;5615;49.304;10.576;2022-09-20T03:39:52;9.20;;;6.93;;
11121;SDS011;5615;49.304;10.576;2022-09-20T03:42:31;14.00;;;7.17;;
11121;SDS011;5615;49.304;10.576;2022-09-20T03:45:02;9.87;;;7.57;;
11121;SDS011;5615;49.304;10.576;2022-09-20T03:47:58;10.83;;;7.57;;
11121;SDS011;5615;49.304;10.576;2022-09-20T03:50:41;13.77;;;7.37;;
11121;SDS011;5615;49.304;10.576;2022-09-20T03:53:30;18.43;;;7.43;;
11121;SDS011;5615;49.304;10.576;2022-09-20T03:56:17;18.17;;;7.70;;
11121;SDS011;5615;49.304;10.576;2022-09-20T03:59:02;13.07;;;8.00;;
11121;SDS011;5615;49.304;10.576;2022-09-20T04:01:47;11.57;;;8.23;;
11121;SDS011;5615;49.304;10.576;2022-09-20T04:04:29;19.30;;;8.73;;
11121;SDS011;5615;49.304;10.576;2022-09-20T04:07:08;15.00;;;7.53;;
11121;SDS011;5615;49.304;10.576;2022-09-20T04:09:54;15.30;;;8.13;;
11121;SDS011;5615;49.304;10.576;2022-09-20T04:12:29;15.13;;;8.53;;
11121;SDS011;5615;49.304;10.576;2022-09-20T04:15:06;16.53;;;8.57;;
11121;SDS011;5615;49.304;10.576;2022-09-20T04:17:48;10.27;;;8.07;;
11121;SDS011;5615;49.304;10.576;2022-09-20T04:20:22;14.80;;;8.17;;
11121;SDS011;5615;49.304;10.576;2022-09-20T04:22:57;21.17;;;9.07;;
11121;SDS011;5615;49.304;10.576;2022-09-20T04:25:29;16.50;;;9.00;;
11121;SDS011;5615;49.304;10.576;2022-09-20T04:28:04;17.93;;;9.40;;
11121;SDS011;5615;49.304;10.576;2022-09-20T04:30:36;12.93;;;9.27;;
11121;SDS011;5615;49.304;10.576;2022-09-20T04:33:10;14.83;;;8.47;;
11121;SDS011;5615;49.304;10.576;2022-09-20T04:35:44;14.90;;;9.87;;
11121;SDS011;5615;49.304;10.576;2022-09-20T04:38:34;15.20;;;9.10;;
11121;SDS011;5615;49.304;10.576;2022-09-20T04:41:11;15.80;;;9.17;;
11121;SDS011;5615;49.304;10.576;2022-09-20T04:43:59;18.03;;;9.53;;
11121;SDS011;5615;49.304;10.576;2022-09-20T04:50:05;21.00;;;10.33;;
11121;SDS011;5615;49.304;10.576;2022-09-20T04:56:15;18.03;;;10.40;;
11121;SDS011;5615;49.304;10.576;2022-09-20T04:58:47;16.90;;;9.80;;
11121;SDS011;5615;49.304;10.576;2022-09-20T05:01:26;21.30;;;10.53;;
11121;SDS011;5615;49.304;10.576;2022-09-20T05:10:34;19.37;;;11.37;;
11121;SDS011;5615;49.304;10.576;2022-09-20T05:13:24;19.80;;;11.57;;
11121;SDS011;5615;49.304;10.576;2022-09-20T05:16:02;18.73;;;11.30;;
11121;SDS011;5615;49.304;10.576;2022-09-20T05:18:44;23.57;;;12.87;;
11121;SDS011;5615;49.304;10.576;2022-09-20T05:24:59;24.90;;;12.97;;
11121;SDS011;5615;49.304;10.576;2022-09-20T05:27:40;28.30;;;13.53;;
11121;SDS011;5615;49.304;10.576;2022-09-20T05:30:15;22.67;;;13.37;;
11121;SDS011;5615;49.304;10.576;2022-09-20T05:32:51;27.30;;;14.03;;
11121;SDS011;5615;49.304;10.576;2022-09-20T05:35:27;22.60;;;13.27;;
11121;SDS011;5615;49.304;10.576;2022-09-20T05:38:00;27.40;;;14.80;;
11121;SDS011;5615;49.304;10.576;2022-09-20T05:40:34;24.60;;;14.80;;
11121;SDS011;5615;49.304;10.576;2022-09-20T05:43:21;23.33;;;14.60;;
11121;SDS011;5615;49.304;10.576;2022-09-20T05:46:01;25.00;;;15.03;;
11121;SDS011;5615;49.304;10.576;2022-09-20T05:48:36;29.80;;;13.93;;
11121;SDS011;5615;49.304;10.576;2022-09-20T05:51:12;23.23;;;14.73;;
11121;SDS011;5615;49.304;10.576;2022-09-20T05:53:52;27.93;;;16.07;;
11121;SDS011;5615;49.304;10.576;2022-09-20T05:56:36;22.17;;;15.50;;
11121;SDS011;5615;49.304;10.576;2022-09-20T05:59:17;30.47;;;15.20;;
11121;SDS011;5615;49.304;10.576;2022-09-20T06:01:58;27.43;;;15.67;;
11121;SDS011;5615;49.304;10.576;2022-09-20T06:04:37;24.97;;;14.83;;
11121;SDS011;5615;49.304;10.576;2022-09-20T06:07:13;23.17;;;14.80;;
11121;SDS011;5615;49.304;10.576;2022-09-20T06:10:04;25.03;;;15.07;;
11121;SDS011;5615;49.304;10.576;2022-09-20T06:12:51;31.20;;;14.20;;
11121;SDS011;5615;49.304;10.576;2022-09-20T06:15:25;25.50;;;14.67;;
11121;SDS011;5615;49.304;10.576;2022-09-20T06:18:12;22.43;;;13.53;;
11121;SDS011;5615;49.304;10.576;2022-09-20T06:20:49;22.27;;;13.53;;
11121;SDS011;5615;49.304;10.576;2022-09-20T06:23:23;24.90;;;13.80;;
11121;SDS011;5615;49.304;10.576;2022-09-20T06:25:50;19.83;;;13.93;;
11121;SDS011;5615;49.304;10.576;2022-09-20T06:28:21;23.03;;;15.60;;
11121;SDS011;5615;49.304;10.576;2022-09-20T06:30:51;20.40;;;13.10;;
11121;SDS011;5615;49.304;10.576;2022-09-20T06:33:21;21.43;;;12.70;;
11121;SDS011;5615;49.304;10.576;2022-09-20T06:35:49;20.30;;;13.00;;
11121;SDS011;5615;49.304;10.576;2022-09-20T06:38:25;21.07;;;13.20;;
11121;SDS011;5615;49.304;10.576;2022-09-20T06:41:24;23.27;;;12.90;;
11121;SDS011;5615;49.304;10.576;2022-09-20T06:43:52;19.77;;;11.77;;
11121;SDS011;5615;49.304;10.576;2022-09-20T06:46:20;16.90;;;11.70;;
11121;SDS011;5615;49.304;10.576;2022-09-20T06:48:48;13.87;;;11.10;;
11121;SDS011;5615;49.304;10.576;2022-09-20T06:51:15;16.70;;;10.43;;
11121;SDS011;5615;49.304;10.576;2022-09-20T06:53:41;15.83;;;10.00;;
11121;SDS011;5615;49.304;10.576;2022-09-20T06:56:09;18.33;;;10.87;;
11121;SDS011;5615;49.304;10.576;2022-09-20T06:58:40;17.27;;;9.60;;
11121;SDS011;5615;49.304;10.576;2022-09-20T07:01:06;12.80;;;9.30;;
11121;SDS011;5615;49.304;10.576;2022-09-20T07:03:33;16.30;;;9.40;;
11121;SDS011;5615;49.304;10.576;2022-09-20T07:06:01;15.20;;;8.70;;
11121;SDS011;5615;49.304;10.576;2022-09-20T07:08:28;15.57;;;7.33;;
11121;SDS011;5615;49.304;10.576;2022-09-20T07:10:55;15.27;;;7.87;;
11121;SDS011;5615;49.304;10.576;2022-09-20T07:13:21;17.03;;;7.50;;
11121;SDS011;5615;49.304;10.576;2022-09-20T07:15:49;12.60;;;6.90;;
11121;SDS011;5615;49.304;10.576;2022-09-20T07:18:15;11.67;;;6.70;;
11121;SDS011;5615;49.304;10.576;2022-09-20T07:20:42;15.17;;;6.20;;
11121;SDS011;5615;49.304;10.576;2022-09-20T07:23:10;11.00;;;5.77;;
11121;SDS011;5615;49.304;10.576;2022-09-20T07:25:37;13.40;;;6.20;;
11121;SDS011;5615;49.304;10.576;2022-09-20T07:28:03;10.40;;;6.00;;
11121;SDS011;5615;49.304;10.576;2022-09-20T07:30:30;10.07;;;5.50;;
11121;SDS011;5615;49.304;10.576;2022-09-20T07:32:56;12.20;;;5.00;;
11121;SDS011;5615;49.304;10.576;2022-09-20T07:35:24;9.67;;;4.70;;
11121;SDS011;5615;49.304;10.576;2022-09-20T07:37:54;9.77;;;3.97;;
11121;SDS011;5615;49.304;10.576;2022-09-20T07:40:23;12.17;;;4.10;;
11121;SDS011;5615;49.304;10.576;2022-09-20T07:42:51;9.07;;;3.83;;
11121;SDS011;5615;49.304;10.576;2022-09-20T07:45:17;11.10;;;3.70;;
11121;SDS011;5615;49.304;10.576;2022-09-20T07:47:44;9.67;;;3.93;;
11121;SDS011;5615;49.304;10.576;2022-09-20T07:50:11;12.17;;;3.60;;
11121;SDS011;5615;49.304;10.576;2022-09-20T07:52:37;12.10;;;3.80;;
11121;SDS011;5615;49.304;10.576;2022-09-20T07:55:04;12.20;;;3.40;;
11121;SDS011;5615;49.304;10.576;2022-09-20T07:57:34;5.67;;;3.30;;
11121;SDS011;5615;49.304;10.576;2022-09-20T08:00:03;8.63;;;3.50;;
11121;SDS011;5615;49.304;10.576;2022-09-20T08:02:31;9.43;;;3.70;;
11121;SDS011;5615;49.304;10.576;2022-09-20T08:04:58;9.50;;;3.90;;
11121;SDS011;5615;49.304;10.576;2022-09-20T08:07:25;13.73;;;4.13;;
11121;SDS011;5615;49.304;10.576;2022-09-20T08:09:52;9.00;;;4.00;;
11121;SDS011;5615;49.304;10.576;2022-09-20T08:12:18;11.77;;;3.87;;
11121;SDS011;5615;49.304;10.576;2022-09-20T08:14:47;7.27;;;3.43;;
11121;SDS011;5615;49.304;10.576;2022-09-20T08:17:14;11.80;;;4.00;;
11121;SDS011;5615;49.304;10.576;2022-09-20T08:19:40;10.80;;;4.17;;
11121;SDS011;5615;49.304;10.576;2022-09-20T08:22:07;12.67;;;4.27;;
11121;SDS011;5615;49.304;10.576;2022-09-20T08:24:34;7.43;;;3.10;;
11121;SDS011;5615;49.304;10.576;2022-09-20T08:27:01;9.10;;;3.00;;
11121;SDS011;5615;49.304;10.576;2022-09-20T08:29:28;10.53;;;3.00;;
11121;SDS011;5615;49.304;10.576;2022-09-20T08:31:56;9.47;;;3.33;;
11121;SDS011;5615;49.304;10.576;2022-09-20T08:34:25;8.20;;;2.63;;
11121;SDS011;5615;49.304;10.576;2022-09-20T08:36:51;9.57;;;3.20;;
11121;SDS011;5615;49.304;10.576;2022-09-20T08:39:20;6.47;;;3.53;;
11121;SDS011;5615;49.304;10.576;2022-09-20T08:41:49;10.13;;;3.87;;
11121;SDS011;5615;49.304;10.576;2022-09-20T08:44:21;11.00;;;3.10;;
11121;SDS011;5615;49.304;10.576;2022-09-20T08:46:53;9.27;;;3.50;;
11121;SDS011;5615;49.304;10.576;2022-09-20T08:49:30;8.80;;;3.03;;
11121;SDS011;5615;49.304;10.576;2022-09-20T08:51:57;11.63;;;3.03;;
11121;SDS011;5615;49.304;10.576;2022-09-20T08:54:26;9.67;;;2.63;;
11121;SDS011;5615;49.304;10.576;2022-09-20T08:56:57;9.30;;;2.70;;
11121;SDS011;5615;49.304;10.576;2022-09-20T08:59:29;10.87;;;2.73;;
11121;SDS011;5615;49.304;10.576;2022-09-20T09:01:56;10.43;;;2.80;;
11121;SDS011;5615;49.304;10.576;2022-09-20T09:04:28;8.13;;;2.70;;
11121;SDS011;5615;49.304;10.576;2022-09-20T09:06:59;7.00;;;2.80;;
11121;SDS011;5615;49.304;10.576;2022-09-20T09:09:27;8.43;;;2.73;;
11121;SDS011;5615;49.304;10.576;2022-09-20T09:11:55;10.63;;;2.83;;
11121;SDS011;5615;49.304;10.576;2022-09-20T09:14:24;8.07;;;2.77;;
11121;SDS011;5615;49.304;10.576;2022-09-20T09:17:11;12.80;;;2.80;;
11121;SDS011;5615;49.304;10.576;2022-09-20T09:19:44;6.07;;;2.50;;
11121;SDS011;5615;49.304;10.576;2022-09-20T09:22:16;9.17;;;2.33;;
11121;SDS011;5615;49.304;10.576;2022-09-20T09:24:46;5.67;;;2.30;;
11121;SDS011;5615;49.304;10.576;2022-09-20T09:27:33;7.93;;;2.60;;
11121;SDS011;5615;49.304;10.576;2022-09-20T09:30:00;9.90;;;2.80;;
11121;SDS011;5615;49.304;10.576;2022-09-20T09:32:28;7.00;;;2.90;;
11121;SDS011;5615;49.304;10.576;2022-09-20T09:35:15;5.00;;;2.17;;
11121;SDS011;5615;49.304;10.576;2022-09-20T09:37:51;5.77;;;2.37;;
11121;SDS011;5615;49.304;10.576;2022-09-20T09:40:19;4.50;;;2.30;;
11121;SDS011;5615;49.304;10.576;2022-09-20T09:42:47;5.37;;;2.40;;
11121;SDS011;5615;49.304;10.576;2022-09-20T09:45:23;8.07;;;2.40;;
11121;SDS011;5615;49.304;10.576;2022-09-20T09:47:52;10.03;;;2.27;;
11121;SDS011;5615;49.304;10.576;2022-09-20T09:50:24;5.67;;;2.10;;
11121;SDS011;5615;49.304;10.576;2022-09-20T09:52:58;6.83;;;2.03;;
11121;SDS011;5615;49.304;10.576;2022-09-20T09:55:29;9.27;;;2.63;;
11121;SDS011;5615;49.304;10.576;2022-09-20T09:58:10;4.70;;;2.43;;
11121;SDS011;5615;49.304;10.576;2022-09-20T10:00:46;5.70;;;2.70;;
11121;SDS011;5615;49.304;10.576;2022-09-20T10:03:20;3.90;;;1.90;;
11121;SDS011;5615;49.304;10.576;2022-09-20T10:06:16;6.00;;;2.33;;
11121;SDS011;5615;49.304;10.576;2022-09-20T10:08:54;10.33;;;2.20;;
11121;SDS011;5615;49.304;10.576;2022-09-20T10:11:45;5.13;;;1.90;;
11121;SDS011;5615;49.304;10.576;2022-09-20T10:14:26;3.50;;;1.50;;
11121;SDS011;5615;49.304;10.576;2022-09-20T10:17:06;6.10;;;1.65;;
11121;SDS011;5615;49.304;10.576;2022-09-20T10:20:02;4.80;;;1.55;;
11121;SDS011;5615;49.304;10.576;2022-09-20T10:22:47;3.53;;;2.03;;
11121;SDS011;5615;49.304;10.576;2022-09-20T10:25:24;10.13;;;2.30;;
11121;SDS011;5615;49.304;10.576;2022-09-20T10:28:06;5.63;;;2.08;;
11121;SDS011;5615;49.304;10.576;2022-09-20T10:30:45;4.57;;;1.90;;
11121;SDS011;5615;49.304;10.576;2022-09-20T10:33:26;5.38;;;1.80;;
11121;SDS011;5615;49.304;10.576;2022-09-20T10:36:09;3.28;;;1.45;;
11121;SDS011;5615;49.304;10.576;2022-09-20T10:38:48;2.53;;;1.52;;
11121;SDS011;5615;49.304;10.576;2022-09-20T10:41:31;2.78;;;1.58;;
11121;SDS011;5615;49.304;10.576;2022-09-20T10:44:30;5.03;;;1.87;;
11121;SDS011;5615;49.304;10.576;2022-09-20T10:47:06;4.20;;;1.60;;
11121;SDS011;5615;49.304;10.576;2022-09-20T10:49:40;5.07;;;1.90;;
11121;SDS011;5615;49.304;10.576;2022-09-20T10:52:21;5.50;;;1.80;;
11121;SDS011;5615;49.304;10.576;2022-09-20T10:55:12;6.73;;;1.83;;
11121;SDS011;5615;49.304;10.576;2022-09-20T10:57:54;5.20;;;2.00;;
11121;SDS011;5615;49.304;10.576;2022-09-20T11:00:32;7.43;;;2.37;;
11121;SDS011;5615;49.304;10.576;2022-09-20T11:03:12;7.87;;;2.50;;
11121;SDS011;5615;49.304;10.576;2022-09-20T11:05:54;3.90;;;2.00;;
11121;SDS011;5615;49.304;10.576;2022-09-20T11:08:31;5.70;;;2.10;;
11121;SDS011;5615;49.304;10.576;2022-09-20T11:11:03;5.27;;;2.00;;
11121;SDS011;5615;49.304;10.576;2022-09-20T11:13:36;4.17;;;2.00;;
11121;SDS011;5615;49.304;10.576;2022-09-20T11:16:09;5.77;;;2.30;;
11121;SDS011;5615;49.304;10.576;2022-09-20T11:18:40;4.93;;;2.20;;
11121;SDS011;5615;49.304;10.576;2022-09-20T11:21:13;4.73;;;2.10;;
11121;SDS011;5615;49.304;10.576;2022-09-20T11:23:46;5.03;;;1.80;;
11121;SDS011;5615;49.304;10.576;2022-09-20T11:26:21;3.67;;;1.70;;
11121;SDS011;5615;49.304;10.576;2022-09-20T11:28:53;8.80;;;2.13;;
11121;SDS011;5615;49.304;10.576;2022-09-20T11:31:23;5.67;;;1.93;;
11121;SDS011;5615;49.304;10.576;2022-09-20T11:33:52;3.80;;;1.90;;
11121;SDS011;5615;49.304;10.576;2022-09-20T11:36:24;3.67;;;1.77;;
11121;SDS011;5615;49.304;10.576;2022-09-20T11:38:55;4.73;;;1.90;;
11121;SDS011;5615;49.304;10.576;2022-09-20T11:41:29;2.33;;;1.80;;
11121;SDS011;5615;49.304;10.576;2022-09-20T11:43:58;4.30;;;1.90;;
11121;SDS011;5615;49.304;10.576;2022-09-20T11:46:28;4.93;;;2.25;;
11121;SDS011;5615;49.304;10.576;2022-09-20T11:49:01;2.97;;;1.70;;
11121;SDS011;5615;49.304;10.576;2022-09-20T11:51:44;4.80;;;1.77;;
11121;SDS011;5615;49.304;10.576;2022-09-20T11:54:54;5.85;;;2.00;;
11121;SDS011;5615;49.304;10.576;2022-09-20T11:57:32;4.90;;;1.95;;
11121;SDS011;5615;49.304;10.576;2022-09-20T11:59:59;3.38;;;1.80;;
11121;SDS011;5615;49.304;10.576;2022-09-20T12:02:30;3.80;;;1.90;;
11121;SDS011;5615;49.304;10.576;2022-09-20T12:05:01;4.38;;;1.90;;
11121;SDS011;5615;49.304;10.576;2022-09-20T12:07:31;5.75;;;2.22;;
11121;SDS011;5615;49.304;10.576;2022-09-20T12:10:02;5.65;;;2.25;;
11121;SDS011;5615;49.304;10.576;2022-09-20T12:12:34;3.30;;;1.75;;
11121;SDS011;5615;49.304;10.576;2022-09-20T12:15:04;5.45;;;1.75;;
11121;SDS011;5615;49.304;10.576;2022-09-20T12:26:39;1.90;;;1.30;;
11121;SDS011;5615;49.304;10.576;2022-09-20T12:32:30;2.67;;;0.98;;
11121;SDS011;5615;49.304;10.576;2022-09-20T12:34:59;2.03;;;1.10;;
11121;SDS011;5615;49.304;10.576;2022-09-20T12:37:26;1.73;;;1.10;;
11121;SDS011;5615;49.304;10.576;2022-09-20T12:39:54;1.48;;;0.98;;
11121;SDS011;5615;49.304;10.576;2022-09-20T12:42:26;1.40;;;0.90;;
11121;SDS011;5615;49.304;10.576;2022-09-20T12:44:57;1.52;;;1.00;;
11121;SDS011;5615;49.304;10.576;2022-09-20T12:47:25;4.15;;;1.00;;
11121;SDS011;5615;49.304;10.576;2022-09-20T12:49:56;3.05;;;1.42;;
11121;SDS011;5615;49.304;10.576;2022-09-20T12:52:48;2.83;;;1.25;;
11121;SDS011;5615;49.304;10.576;2022-09-20T12:55:27;1.88;;;1.20;;
11121;SDS011;5615;49.304;10.576;2022-09-20T12:58:21;3.15;;;1.27;;
11121;SDS011;5615;49.304;10.576;2022-09-20T13:00:51;2.22;;;1.10;;
11121;SDS011;5615;49.304;10.576;2022-09-20T13:10:22;2.05;;;1.23;;
11121;SDS011;5615;49.304;10.576;2022-09-20T13:12:52;2.47;;;1.33;;
11121;SDS011;5615;49.304;10.576;2022-09-20T13:15:23;4.82;;;1.42;;
11121;SDS011;5615;49.304;10.576;2022-09-20T13:17:51;2.20;;;1.53;;
11121;SDS011;5615;49.304;10.576;2022-09-20T13:20:21;2.83;;;1.50;;
11121;SDS011;5615;49.304;10.576;2022-09-20T13:22:52;1.50;;;1.27;;
11121;SDS011;5615;49.304;10.576;2022-09-20T13:25:19;2.43;;;1.30;;
11121;SDS011;5615;49.304;10.576;2022-09-20T13:27:49;1.67;;;1.33;;
11121;SDS011;5615;49.304;10.576;2022-09-20T13:30:21;2.43;;;1.60;;
11121;SDS011;5615;49.304;10.576;2022-09-20T13:32:49;2.20;;;1.30;;
11121;SDS011;5615;49.304;10.576;2022-09-20T13:35:17;2.30;;;1.43;;
11121;SDS011;5615;49.304;10.576;2022-09-20T13:37:49;1.80;;;1.00;;
11121;SDS011;5615;49.304;10.576;2022-09-20T13:40:18;2.92;;;1.20;;
11121;SDS011;5615;49.304;10.576;2022-09-20T13:42:46;2.97;;;1.20;;
11121;SDS011;5615;49.304;10.576;2022-09-20T13:45:15;3.58;;;1.60;;
11121;SDS011;5615;49.304;10.576;2022-09-20T13:47:43;3.50;;;1.42;;
11121;SDS011;5615;49.304;10.576;2022-09-20T13:50:15;3.40;;;1.50;;
11121;SDS011;5615;49.304;10.576;2022-09-20T13:52:49;3.05;;;1.67;;
11121;SDS011;5615;49.304;10.576;2022-09-20T13:55:36;2.85;;;1.52;;
11121;SDS011;5615;49.304;10.576;2022-09-20T13:58:05;3.05;;;1.75;;
11121;SDS011;5615;49.304;10.576;2022-09-20T14:00:34;2.28;;;1.60;;
11121;SDS011;5615;49.304;10.576;2022-09-20T14:03:02;3.00;;;1.83;;
11121;SDS011;5615;49.304;10.576;2022-09-20T14:05:29;4.57;;;2.17;;
11121;SDS011;5615;49.304;10.576;2022-09-20T14:07:58;3.22;;;1.60;;
11121;SDS011;5615;49.304;10.576;2022-09-20T14:10:30;5.03;;;1.77;;
11121;SDS011;5615;49.304;10.576;2022-09-20T14:13:00;4.13;;;1.73;;
11121;SDS011;5615;49.304;10.576;2022-09-20T14:15:30;5.20;;;1.63;;
11121;SDS011;5615;49.304;10.576;2022-09-20T14:18:01;3.28;;;1.70;;
11121;SDS011;5615;49.304;10.576;2022-09-20T14:20:30;2.45;;;1.30;;
11121;SDS011;5615;49.304;10.576;2022-09-20T14:22:59;5.80;;;1.35;;
11121;SDS011;5615;49.304;10.576;2022-09-20T14:25:26;4.43;;;1.42;;
11121;SDS011;5615;49.304;10.576;2022-09-20T14:28:06;1.67;;;1.33;;
11121;SDS011;5615;49.304;10.576;2022-09-20T14:30:43;3.10;;;1.55;;
11121;SDS011;5615;49.304;10.576;2022-09-20T14:33:13;1.88;;;1.20;;
11121;SDS011;5615;49.304;10.576;2022-09-20T14:35:45;2.33;;;1.50;;
11121;SDS011;5615;49.304;10.576;2022-09-20T14:38:14;1.92;;;1.30;;
11121;SDS011;5615;49.304;10.576;2022-09-20T14:40:44;3.53;;;1.40;;
11121;SDS011;5615;49.304;10.576;2022-09-20T14:43:19;2.78;;;1.52;;
11121;SDS011;5615;49.304;10.576;2022-09-20T14:45:50;2.65;;;1.77;;
11121;SDS011;5615;49.304;10.576;2022-09-20T14:48:33;2.53;;;1.20;;
11121;SDS011;5615;49.304;10.576;2022-09-20T14:51:08;3.38;;;1.30;;
11121;SDS011;5615;49.304;10.576;2022-09-20T14:53:51;3.50;;;1.90;;
11121;SDS011;5615;49.304;10.576;2022-09-20T14:56:25;3.03;;;1.50;;
11121;SDS011;5615;49.304;10.576;2022-09-20T14:59:04;3.17;;;1.73;;
11121;SDS011;5615;49.304;10.576;2022-09-20T15:01:44;3.95;;;1.70;;
11121;SDS011;5615;49.304;10.576;2022-09-20T15:04:20;5.05;;;1.98;;
11121;SDS011;5615;49.304;10.576;2022-09-20T15:06:49;5.75;;;2.58;;
11121;SDS011;5615;49.304;10.576;2022-09-20T15:09:18;5.03;;;2.33;;
11121;SDS011;5615;49.304;10.576;2022-09-20T15:11:46;3.85;;;1.73;;
11121;SDS011;5615;49.304;10.576;2022-09-20T15:14:23;5.75;;;2.83;;
11121;SDS011;5615;49.304;10.576;2022-09-20T15:16:50;5.97;;;3.10;;
11121;SDS011;5615;49.304;10.576;2022-09-20T15:19:17;5.57;;;2.67;;
11121;SDS011;5615;49.304;10.576;2022-09-20T15:21:43;3.63;;;2.05;;
11121;SDS011;5615;49.304;10.576;2022-09-20T15:24:10;3.63;;;2.05;;
11121;SDS011;5615;49.304;10.576;2022-09-20T15:26:38;6.00;;;2.00;;
11121;SDS011;5615;49.304;10.576;2022-09-20T15:29:05;4.87;;;2.20;;
11121;SDS011;5615;49.304;10.576;2022-09-20T15:31:31;5.23;;;2.40;;
11121;SDS011;5615;49.304;10.576;2022-09-20T15:33:58;4.73;;;2.47;;
11121;SDS011;5615;49.304;10.576;2022-09-20T15:36:25;4.77;;;2.50;;
11121;SDS011;5615;49.304;10.576;2022-09-20T15:38:55;4.63;;;2.47;;
11121;SDS011;5615;49.304;10.576;2022-09-20T15:41:22;5.60;;;2.40;;
11121;SDS011;5615;49.304;10.576;2022-09-20T15:43:50;3.50;;;1.90;;
11121;SDS011;5615;49.304;10.576;2022-09-20T15:46:17;3.37;;;1.97;;
11121;SDS011;5615;49.304;10.576;2022-09-20T15:48:45;3.03;;;1.77;;
11121;SDS011;5615;49.304;10.576;2022-09-20T15:51:12;3.30;;;1.87;;
11121;SDS011;5615;49.304;10.576;2022-09-20T15:53:40;4.07;;;2.22;;
11121;SDS011;5615;49.304;10.576;2022-09-20T15:56:13;4.80;;;2.28;;
11121;SDS011;5615;49.304;10.576;2022-09-20T15:58:43;4.07;;;2.00;;
11121;SDS011;5615;49.304;10.576;2022-09-20T16:01:12;2.53;;;1.90;;